createdAt,value
2023-03-17T00:34:12.667Z,0.00
2023-03-17T00:34:17.651Z,0.00
2023-03-17T00:35:17.697Z,0.00
2023-03-17T02:02:28.727Z,0.00
2023-03-17T02:02:33.736Z,0.00
2023-03-17T02:03:33.802Z,0.00
2023-03-17T02:04:33.766Z,0.00
2023-03-17T02:05:33.704Z,0.00
2023-03-17T02:06:33.707Z,0.00
2023-03-17T02:07:33.747Z,0.00
2023-03-17T02:08:33.672Z,0.00
2023-03-17T02:09:33.674Z,0.00
2023-03-17T02:10:33.659Z,0.00
2023-03-17T02:11:33.672Z,0.00
2023-03-17T02:12:33.642Z,0.00
2023-03-17T02:13:33.637Z,0.00
2023-03-17T02:14:33.615Z,0.00
2023-03-17T02:15:33.584Z,0.00
2023-03-17T02:16:33.698Z,0.00
2023-03-17T02:17:33.630Z,0.00
2023-03-17T02:18:33.632Z,0.00
2023-03-17T02:19:33.556Z,0.00
2023-03-17T02:20:33.585Z,0.00
2023-03-17T02:21:33.593Z,0.00
2023-03-17T02:22:33.546Z,0.00
2023-03-17T02:23:33.541Z,0.00
2023-03-17T02:24:33.509Z,0.00
2023-03-17T02:25:33.506Z,0.00
2023-03-17T02:26:33.476Z,0.00
2023-03-17T02:27:33.441Z,0.00
2023-03-17T02:28:33.462Z,0.00
2023-03-17T02:29:33.457Z,0.00
2023-03-17T02:30:33.533Z,0.00
2023-03-17T02:31:33.445Z,0.00
2023-03-17T03:17:44.721Z,0.00
2023-03-17T03:17:49.790Z,0.00
2023-03-17T03:18:49.743Z,0.00
2023-03-17T03:19:50.845Z,0.00
2023-03-17T03:35:02.234Z,0.00
2023-03-17T03:35:08.405Z,0.00
2023-03-17T03:36:09.224Z,0.00
2023-03-17T03:37:08.322Z,0.00
2023-03-17T04:25:20.262Z,0.00
2023-03-17T04:25:26.520Z,0.00
2023-03-17T05:09:38.189Z,0.00
2023-03-17T05:49:56.116Z,0.00
2023-03-17T05:50:03.225Z,218.00
2023-03-17T05:51:14.619Z,206.00
2023-03-17T05:52:02.384Z,223.00
2023-03-17T05:53:02.382Z,238.00
2023-03-17T05:54:02.111Z,253.00
2023-03-17T07:36:13.407Z,275.00
2023-03-17T07:36:19.439Z,2910.00
2023-03-17T07:37:19.470Z,2841.00
2023-03-17T07:38:19.311Z,2925.00
2023-03-17T07:39:19.533Z,2980.00
2023-03-17T07:40:19.446Z,3060.00
2023-03-17T07:41:19.456Z,3168.00
2023-03-17T07:42:19.697Z,3264.00
2023-03-17T07:43:19.630Z,3352.00
2023-03-17T07:44:19.359Z,3362.00
2023-03-17T07:45:20.085Z,3346.00
2023-03-17T07:46:19.815Z,3379.00
2023-03-17T07:47:19.326Z,3392.00
2023-03-17T07:48:19.227Z,3396.00
2023-03-17T07:49:27.767Z,3419.00
2023-03-17T07:50:19.391Z,3307.00
2023-03-17T07:51:19.591Z,3309.00
2023-03-17T07:52:19.231Z,3332.00
2023-03-17T07:53:19.662Z,3406.00
2023-03-17T07:54:19.303Z,3441.00
2023-03-17T07:55:19.206Z,3416.00
2023-03-17T07:56:19.326Z,3464.00
2023-03-17T07:57:19.417Z,3424.00
2023-03-17T07:58:19.293Z,3461.00
2023-03-17T10:13:30.958Z,3495.00
2023-03-17T10:13:36.004Z,2250.00
2023-03-17T10:14:37.084Z,4204.00
2023-03-17T10:15:37.324Z,3922.00
2023-03-17T10:16:37.649Z,3842.00
2023-03-17T10:17:37.036Z,3977.00
2023-03-17T10:18:37.183Z,3945.00
2023-03-17T10:19:37.009Z,4007.00
2023-03-17T10:20:36.967Z,3843.00
2023-03-17T10:21:37.037Z,3746.00
2023-03-17T10:22:37.499Z,3729.00
2023-03-17T10:23:36.942Z,3857.00
2023-03-17T10:24:36.865Z,3877.00
2023-03-17T10:25:36.861Z,4050.00
2023-03-17T10:26:36.762Z,3813.00
2023-03-17T10:27:36.835Z,3676.00
2023-03-17T10:28:36.708Z,3328.00
2023-03-17T10:29:36.834Z,3343.00
2023-03-17T10:30:36.727Z,3299.00
2023-03-17T10:31:36.872Z,3310.00
2023-03-17T10:32:36.756Z,3413.00
2023-03-17T10:33:36.797Z,3608.00
2023-03-17T10:34:38.104Z,3697.00
2023-03-17T10:35:36.923Z,3967.00
2023-03-17T10:36:36.730Z,3905.00
2023-03-17T10:37:36.944Z,3573.00
2023-03-17T10:38:36.804Z,3837.00
2023-03-17T10:39:36.740Z,3653.00
2023-03-17T10:40:36.612Z,3957.00
2023-03-17T10:41:36.982Z,3480.00
2023-03-17T10:42:36.665Z,3603.00
2023-03-17T10:43:36.967Z,4113.00
2023-03-17T10:44:37.087Z,3029.00
2023-03-17T10:45:39.118Z,3567.00
2023-03-17T10:46:36.704Z,3493.00
2023-03-17T10:47:36.797Z,2902.00
2023-03-17T10:48:36.688Z,3410.00
2023-03-17T10:49:36.865Z,3157.00
2023-03-17T10:50:36.646Z,3421.00
2023-03-17T10:51:36.801Z,3130.00
2023-03-17T10:52:36.555Z,3006.00
2023-03-17T10:53:36.630Z,3110.00
2023-03-17T10:54:36.538Z,2685.00
2023-03-17T10:55:36.919Z,2733.00
2023-03-17T10:56:36.637Z,2971.00
2023-03-17T10:57:36.513Z,2932.00
2023-03-17T10:58:36.542Z,3303.00
2023-03-17T10:59:36.570Z,3151.00
2023-03-17T11:00:36.638Z,3030.00
2023-03-17T11:01:36.565Z,2702.00
2023-03-17T11:02:36.537Z,2846.00
2023-03-17T11:03:36.696Z,2743.00
2023-03-17T11:36:47.506Z,2991.00
2023-03-17T11:36:55.385Z,3103.00
2023-03-17T11:37:53.583Z,3594.00
2023-03-17T11:38:53.613Z,3525.00
2023-03-17T11:39:53.804Z,3474.00
2023-03-17T11:40:53.626Z,3711.00
2023-03-17T11:41:53.502Z,3720.00
2023-03-17T11:42:54.773Z,3786.00
2023-03-17T11:43:53.611Z,3921.00
2023-03-17T11:44:53.463Z,3778.00
2023-03-17T15:37:46.940Z,1558.00
2023-03-17T15:38:47.910Z,1579.00
2023-03-17T15:39:47.934Z,1548.00
2023-03-17T15:40:47.900Z,1531.00
2023-03-17T15:41:47.892Z,1492.00
2023-03-17T15:42:47.884Z,1448.00
2023-03-17T15:43:47.901Z,1444.00
2023-03-17T15:44:47.851Z,1438.00
2023-03-17T15:45:47.908Z,1423.00
2023-03-17T15:46:47.815Z,1399.00
2023-03-17T15:47:47.825Z,1394.00
2023-03-17T15:48:47.795Z,1274.00
2023-03-17T15:49:47.869Z,1188.00
2023-03-17T15:50:47.806Z,1409.00
2023-03-17T15:51:47.827Z,1440.00
2023-03-17T15:52:47.792Z,1468.00
2023-03-17T15:53:47.780Z,1376.00
2023-03-17T15:54:47.771Z,1287.00
2023-03-17T15:55:47.754Z,1282.00
2023-03-17T15:56:47.746Z,1223.00
2023-03-17T15:57:54.774Z,1159.00
2023-03-17T15:58:47.705Z,1140.00
2023-03-17T15:59:47.739Z,1160.00
2023-03-17T16:00:47.698Z,1225.00
2023-03-17T16:01:47.703Z,1257.00
2023-03-17T16:02:47.814Z,1265.00
2023-03-17T16:03:47.696Z,1241.00
2023-03-17T16:04:47.736Z,1110.00
2023-03-17T16:05:47.730Z,894.00
2023-03-17T16:06:48.802Z,753.00
2023-03-17T16:07:47.732Z,743.00
2023-03-17T16:08:47.600Z,742.00
2023-03-17T16:09:47.600Z,755.00
2023-03-17T16:10:47.570Z,797.00
2023-03-17T16:11:47.583Z,755.00
2023-03-17T16:12:47.568Z,693.00
2023-03-17T16:13:47.643Z,664.00
2023-03-17T16:14:47.551Z,638.00
2023-03-17T16:15:47.592Z,626.00
2023-03-17T16:16:47.540Z,651.00
2023-03-17T16:17:47.559Z,656.00
2023-03-17T16:18:47.586Z,661.00
2023-03-17T16:19:47.507Z,644.00
2023-03-17T16:20:47.487Z,585.00
2023-03-17T16:21:47.517Z,555.00
2023-03-17T16:22:47.563Z,557.00
2023-03-17T16:23:47.458Z,579.00
2023-03-17T16:24:47.438Z,601.00
2023-03-17T16:25:47.451Z,604.00
2023-03-17T16:26:47.506Z,585.00
2023-03-17T16:27:47.400Z,579.00
2023-03-17T16:28:47.434Z,569.00
2023-03-17T16:29:47.428Z,544.00
2023-03-17T16:30:47.530Z,540.00
2023-03-17T16:31:47.386Z,546.00
2023-03-17T16:32:47.396Z,546.00
2023-03-17T16:33:47.387Z,529.00
2023-03-17T16:34:47.357Z,535.00
2023-03-17T16:35:47.420Z,538.00
2023-03-17T16:36:47.369Z,510.00
2023-03-17T16:37:47.312Z,492.00
2023-03-17T16:38:47.346Z,488.00
2023-03-17T16:39:47.293Z,492.00
2023-03-17T16:40:47.334Z,492.00
2023-03-17T16:41:47.298Z,464.00
2023-03-17T16:42:47.335Z,424.00
2023-03-17T16:43:47.284Z,394.00
2023-03-17T16:44:47.366Z,357.00
2023-03-17T16:45:47.226Z,347.00
2023-03-17T16:46:47.327Z,317.00
2023-03-17T16:47:47.207Z,299.00
2023-03-17T16:48:47.218Z,317.00
2023-03-17T16:49:47.226Z,346.00
2023-03-17T16:50:47.216Z,367.00
2023-03-17T16:51:49.380Z,386.00
2023-03-17T16:52:47.226Z,401.00
2023-03-17T16:53:47.155Z,399.00
2023-03-17T16:54:47.173Z,401.00
2023-03-17T16:55:47.204Z,396.00
2023-03-17T16:56:47.336Z,378.00
2023-03-17T16:57:47.122Z,365.00
2023-03-17T16:58:47.122Z,354.00
2023-03-17T16:59:47.150Z,343.00
2023-03-17T17:00:47.132Z,325.00
2023-03-17T17:01:47.167Z,308.00
2023-03-17T17:02:49.601Z,297.00
2023-03-17T17:03:47.087Z,292.00
2023-03-17T17:04:47.063Z,281.00
2023-03-17T17:05:47.036Z,271.00
2023-03-17T17:06:47.190Z,265.00
2023-03-17T17:07:47.014Z,252.00
2023-03-17T17:08:47.032Z,244.00
2023-03-17T17:09:47.017Z,230.00
2023-03-17T17:10:47.009Z,220.00
2023-03-17T17:12:09.479Z,211.00
2023-03-17T17:12:47.153Z,197.00
2023-03-17T17:13:47.078Z,189.00
2023-03-17T17:14:47.045Z,183.00
2023-03-17T17:15:47.048Z,175.00
2023-03-17T17:16:46.962Z,170.00
2023-03-17T17:17:46.962Z,163.00
2023-03-17T17:18:46.954Z,157.00
2023-03-17T17:19:46.923Z,154.00
2023-03-17T17:20:46.966Z,146.00
2023-03-17T17:21:46.947Z,138.00
2023-03-17T17:22:46.894Z,133.00
2023-03-17T17:23:46.896Z,125.00
2023-03-17T17:24:46.864Z,117.00
2023-03-17T17:25:46.890Z,110.00
2023-03-17T17:26:46.856Z,109.00
2023-03-17T17:27:46.828Z,100.00
2023-03-17T17:28:46.902Z,92.00
2023-03-17T17:29:46.814Z,83.00
2023-03-17T17:30:46.823Z,73.00
2023-03-17T17:31:46.841Z,65.00
2023-03-17T17:32:46.804Z,58.00
2023-03-17T17:33:46.817Z,51.00
2023-03-17T17:34:47.960Z,43.00
2023-03-17T17:35:46.955Z,36.00
2023-03-17T17:36:46.921Z,33.00
2023-03-17T17:37:46.915Z,28.00
2023-03-17T17:38:46.878Z,25.00
2023-03-17T17:39:46.869Z,23.00
2023-03-17T17:40:46.886Z,22.00
2023-03-17T17:41:46.928Z,20.00
2023-03-17T17:42:46.766Z,19.00
2023-03-17T17:43:46.767Z,17.00
2023-03-17T17:44:46.751Z,15.00
2023-03-17T17:45:46.774Z,14.00
2023-03-17T17:46:46.704Z,9.00
2023-03-17T17:47:46.717Z,9.00
2023-03-17T17:48:46.661Z,10.00
2023-03-17T17:49:46.602Z,8.00
2023-03-17T17:51:09.632Z,7.00
2023-03-17T17:51:46.653Z,5.00
2023-03-17T17:52:47.957Z,6.00
2023-03-17T17:53:46.595Z,3.00
2023-03-17T17:54:46.660Z,3.00
2023-03-17T17:55:46.680Z,2.00
2023-03-17T17:56:46.793Z,2.00
2023-03-17T17:57:46.598Z,1.00
2023-03-17T17:58:46.740Z,2.00
2023-03-17T17:59:46.539Z,1.00
2023-03-17T18:00:46.623Z,1.00
2023-03-17T18:01:46.593Z,1.00
2023-03-17T18:02:46.528Z,0.00
2023-03-17T18:03:46.642Z,0.00
2023-03-17T18:04:46.605Z,0.00
2023-03-17T18:05:46.580Z,0.00
2023-03-17T18:06:46.492Z,0.00
2023-03-17T18:07:46.572Z,0.00
2023-03-17T18:08:46.541Z,0.00
2023-03-17T18:09:46.490Z,0.00
2023-03-17T18:10:46.542Z,0.00
2023-03-17T18:11:46.496Z,0.00
2023-03-17T18:12:46.502Z,0.00
2023-03-17T18:13:46.528Z,0.00
2023-03-17T18:14:46.645Z,0.00
2023-03-17T18:15:46.439Z,0.00
2023-03-17T18:16:46.468Z,0.00
2023-03-17T18:17:46.468Z,0.00
2023-03-17T18:18:46.434Z,0.00
2023-03-17T18:19:46.417Z,0.00
2023-03-17T18:20:46.393Z,0.00
2023-03-17T18:21:46.361Z,0.00
2023-03-17T18:22:46.403Z,0.00
2023-03-17T18:23:46.365Z,0.00
2023-03-17T18:24:46.317Z,0.00
2023-03-17T18:25:46.341Z,0.00
2023-03-17T18:26:46.297Z,0.00
2023-03-17T18:27:46.367Z,0.00
2023-03-17T18:28:46.304Z,0.00
2023-03-17T18:29:46.368Z,0.00
2023-03-17T18:30:46.387Z,0.00
2023-03-17T18:31:46.552Z,0.00
2023-03-17T18:32:46.288Z,0.00
2023-03-17T18:33:46.268Z,0.00
2023-03-17T18:34:46.339Z,0.00
2023-03-17T18:35:46.424Z,0.00
2023-03-17T18:36:46.350Z,0.00
2023-03-17T18:37:46.418Z,0.00
2023-03-17T18:38:46.215Z,0.00
2023-03-17T18:39:55.519Z,0.00
2023-03-17T18:40:46.202Z,0.00
2023-03-17T18:41:46.182Z,0.00
2023-03-17T18:42:46.185Z,0.00
2023-03-17T18:43:46.160Z,0.00
2023-03-17T18:44:46.182Z,0.00
2023-03-17T18:45:46.233Z,0.00
2023-03-17T18:46:46.127Z,0.00
2023-03-17T18:47:46.109Z,0.00
2023-03-17T18:48:46.168Z,0.00
2023-03-17T18:49:47.222Z,0.00
2023-03-17T18:50:46.071Z,0.00
2023-03-17T18:51:46.093Z,0.00
2023-03-17T18:52:46.165Z,0.00
2023-03-17T18:53:46.080Z,0.00
2023-03-17T18:54:46.264Z,0.00
2023-03-17T18:55:46.056Z,0.00
2023-03-17T18:56:46.035Z,0.00
2023-03-17T18:57:45.986Z,0.00
2023-03-17T18:58:46.000Z,0.00
2023-03-17T18:59:46.094Z,0.00
2023-03-17T19:00:45.962Z,0.00
2023-03-17T19:01:45.894Z,0.00
2023-03-17T19:02:46.128Z,0.00
2023-03-17T19:03:45.969Z,0.00
2023-03-17T19:04:45.998Z,0.00
2023-03-17T19:05:45.927Z,0.00
2023-03-17T19:06:45.954Z,0.00
2023-03-17T19:07:45.846Z,0.00
2023-03-17T19:08:45.911Z,0.00
2023-03-17T19:09:45.889Z,0.00
2023-03-17T19:10:46.042Z,0.00
2023-03-17T19:11:45.874Z,0.00
2023-03-17T19:12:45.874Z,0.00
2023-03-17T19:13:45.895Z,0.00
2023-03-17T19:14:45.824Z,0.00
2023-03-17T19:15:45.786Z,0.00
2023-03-17T19:16:45.811Z,0.00
2023-03-17T19:17:45.727Z,0.00
2023-03-17T19:18:45.740Z,0.00
2023-03-17T19:19:45.720Z,0.00
2023-03-17T19:20:45.732Z,0.00
2023-03-17T19:21:45.691Z,0.00
2023-03-17T19:22:45.665Z,0.00
2023-03-17T19:23:45.717Z,0.00
2023-03-17T19:24:45.656Z,0.00
2023-03-17T19:25:45.666Z,0.00
2023-03-17T19:26:45.695Z,0.00
2023-03-17T19:27:45.646Z,0.00
2023-03-17T19:28:45.674Z,0.00
2023-03-17T19:29:45.595Z,0.00
2023-03-17T19:30:45.670Z,0.00
2023-03-17T19:31:48.378Z,0.00
2023-03-17T19:32:45.640Z,0.00
2023-03-17T19:33:45.675Z,0.00
2023-03-17T19:34:45.580Z,0.00
2023-03-17T19:35:45.546Z,0.00
2023-03-17T19:36:45.607Z,0.00
2023-03-17T19:37:45.579Z,0.00
2023-03-17T19:38:45.539Z,0.00
2023-03-17T19:39:45.494Z,0.00
2023-03-17T19:40:45.494Z,0.00
2023-03-17T19:41:45.506Z,0.00
2023-03-17T19:42:45.514Z,0.00
2023-03-17T19:43:45.489Z,0.00
2023-03-17T19:44:45.485Z,0.00
2023-03-17T19:45:45.503Z,0.00
2023-03-17T19:46:45.443Z,0.00
2023-03-17T19:47:45.485Z,0.00
2023-03-17T19:48:45.431Z,0.00
2023-03-17T19:49:45.391Z,0.00
2023-03-17T19:50:45.377Z,0.00
2023-03-17T19:51:45.390Z,0.00
2023-03-17T19:52:45.403Z,0.00
2023-03-17T19:53:45.415Z,0.00
2023-03-17T19:54:45.385Z,0.00
2023-03-17T19:55:45.345Z,0.00
2023-03-17T19:56:45.368Z,0.00
2023-03-17T19:57:45.331Z,0.00
2023-03-17T19:58:45.321Z,0.00
2023-03-17T19:59:45.378Z,0.00
2023-03-17T20:00:45.361Z,0.00
2023-03-17T20:01:45.354Z,0.00
2023-03-17T20:02:45.275Z,0.00
2023-03-17T20:03:45.330Z,0.00
2023-03-17T20:04:45.334Z,0.00
2023-03-17T20:05:45.270Z,0.00
2023-03-17T20:06:45.247Z,0.00
2023-03-17T20:07:45.222Z,0.00
2023-03-17T20:08:45.233Z,0.00
2023-03-17T20:09:45.214Z,0.00
2023-03-17T20:10:45.237Z,0.00
2023-03-17T20:11:45.186Z,0.00
2023-03-17T20:12:45.183Z,0.00
2023-03-17T20:13:45.323Z,0.00
2023-03-17T20:14:45.223Z,0.00
2023-03-17T20:15:45.186Z,0.00
2023-03-17T20:16:45.159Z,0.00
2023-03-17T20:17:45.114Z,0.00
2023-03-17T20:18:45.142Z,0.00
2023-03-17T20:19:45.117Z,0.00
2023-03-17T20:20:45.108Z,0.00
2023-03-17T20:21:45.103Z,0.00
2023-03-17T20:22:45.100Z,0.00
2023-03-17T20:23:45.075Z,0.00
2023-03-17T20:24:45.023Z,0.00
2023-03-17T20:25:45.053Z,0.00
2023-03-17T20:26:45.026Z,0.00
2023-03-17T20:27:45.005Z,0.00
2023-03-17T20:28:45.024Z,0.00
2023-03-17T20:29:44.981Z,0.00
2023-03-17T20:30:45.117Z,0.00
2023-03-17T20:31:44.981Z,0.00
2023-03-17T20:32:45.043Z,0.00
2023-03-17T20:33:45.017Z,0.00
2023-03-17T20:34:44.945Z,0.00
2023-03-17T20:35:44.969Z,0.00
2023-03-17T20:36:44.950Z,0.00
2023-03-17T20:37:44.952Z,0.00
2023-03-17T20:38:44.944Z,0.00
2023-03-17T20:39:44.892Z,0.00
2023-03-17T20:40:44.874Z,0.00
2023-03-17T20:41:44.871Z,0.00
2023-03-17T20:42:44.841Z,0.00
2023-03-17T20:43:44.886Z,0.00
2023-03-17T20:44:44.808Z,0.00
2023-03-17T20:45:44.918Z,0.00
2023-03-17T20:46:44.885Z,0.00
2023-03-17T20:47:44.807Z,0.00
2023-03-17T20:48:44.833Z,0.00
2023-03-17T20:49:44.851Z,0.00
2023-03-17T20:50:44.779Z,0.00
2023-03-17T20:51:44.799Z,0.00
2023-03-17T20:52:44.899Z,0.00
2023-03-17T20:53:44.773Z,0.00
2023-03-17T20:54:44.727Z,0.00
2023-03-17T20:55:44.728Z,0.00
2023-03-17T20:56:44.731Z,0.00
2023-03-17T20:57:44.704Z,0.00
2023-03-17T20:58:44.702Z,0.00
2023-03-17T20:59:44.680Z,0.00
2023-03-17T21:00:44.666Z,0.00
2023-03-17T21:01:44.687Z,0.00
2023-03-17T21:02:44.670Z,0.00
2023-03-17T21:03:45.653Z,0.00
2023-03-17T21:04:44.648Z,0.00
2023-03-17T21:05:44.653Z,0.00
2023-03-17T21:06:44.591Z,0.00
2023-03-17T21:07:44.604Z,0.00
2023-03-17T21:08:44.584Z,0.00
2023-03-17T21:09:44.577Z,0.00
2023-03-17T21:10:44.592Z,0.00
2023-03-17T21:11:44.632Z,0.00
2023-03-17T21:12:44.585Z,0.00
2023-03-17T21:13:44.526Z,0.00
2023-03-17T21:14:44.599Z,0.00
2023-03-17T21:15:44.555Z,0.00
2023-03-17T21:16:44.492Z,0.00
2023-03-17T21:17:44.513Z,0.00
2023-03-17T21:18:44.553Z,0.00
2023-03-17T21:19:44.492Z,0.00
2023-03-17T21:20:44.496Z,0.00
2023-03-17T21:21:44.502Z,0.00
2023-03-17T21:22:44.492Z,0.00
2023-03-17T21:23:44.421Z,0.00
2023-03-17T21:24:44.457Z,0.00
2023-03-17T21:25:44.514Z,0.00
2023-03-17T21:26:44.394Z,0.00
2023-03-17T21:27:44.408Z,0.00
2023-03-17T21:28:44.395Z,0.00
2023-03-17T21:29:44.417Z,0.00
2023-03-17T21:30:44.346Z,0.00
2023-03-17T21:31:44.477Z,0.00
2023-03-17T21:32:44.364Z,0.00
2023-03-17T21:33:44.379Z,0.00
2023-03-17T21:34:44.326Z,0.00
2023-03-17T21:35:44.403Z,0.00
2023-03-17T21:36:44.303Z,0.00
2023-03-17T21:37:44.345Z,0.00
2023-03-17T21:38:44.334Z,0.00
2023-03-17T21:39:44.263Z,0.00
2023-03-17T21:40:44.246Z,0.00
2023-03-17T21:41:44.230Z,0.00
2023-03-17T21:42:44.246Z,0.00
2023-03-17T21:43:44.207Z,0.00
2023-03-17T21:44:44.266Z,0.00
2023-03-17T21:45:44.284Z,0.00
2023-03-17T21:46:44.185Z,0.00
2023-03-17T21:47:44.191Z,0.00
2023-03-17T21:48:44.197Z,0.00
2023-03-17T21:49:44.194Z,0.00
2023-03-17T21:50:44.149Z,0.00
2023-03-17T21:51:44.142Z,0.00
2023-03-17T21:52:44.124Z,0.00
2023-03-17T21:53:44.111Z,0.00
2023-03-17T21:54:44.092Z,0.00
2023-03-17T21:55:44.178Z,0.00
2023-03-17T21:56:44.069Z,0.00
2023-03-17T21:57:44.088Z,0.00
2023-03-17T21:58:44.053Z,0.00
2023-03-17T21:59:44.058Z,0.00
2023-03-17T22:00:45.789Z,0.00
2023-03-17T22:01:44.157Z,0.00
2023-03-17T22:02:44.049Z,0.00
2023-03-17T22:03:44.007Z,0.00
2023-03-17T22:04:44.021Z,0.00
2023-03-17T22:05:44.062Z,0.00
2023-03-17T22:06:44.027Z,0.00
2023-03-17T22:07:44.040Z,0.00
2023-03-17T22:08:44.082Z,0.00
2023-03-17T22:09:43.968Z,0.00
2023-03-17T22:10:43.925Z,0.00
2023-03-17T22:11:44.000Z,0.00
2023-03-17T22:12:43.902Z,0.00
2023-03-17T22:13:43.923Z,0.00
2023-03-17T22:14:44.020Z,0.00
2023-03-17T22:15:43.906Z,0.00
2023-03-17T22:16:44.147Z,0.00
2023-03-17T22:17:43.852Z,0.00
2023-03-17T22:18:43.859Z,0.00
2023-03-17T22:19:43.894Z,0.00
2023-03-17T22:20:43.905Z,0.00
2023-03-17T22:21:43.831Z,0.00
2023-03-17T22:22:43.811Z,0.00
2023-03-17T22:23:43.813Z,0.00
2023-03-17T22:24:43.796Z,0.00
2023-03-17T22:25:43.829Z,0.00
2023-03-17T22:26:43.759Z,0.00
2023-03-17T22:27:43.748Z,0.00
2023-03-17T22:28:43.829Z,0.00
2023-03-17T22:29:43.731Z,0.00
2023-03-17T22:30:43.752Z,0.00
2023-03-17T22:31:43.872Z,0.00
2023-03-17T22:32:43.715Z,0.00
2023-03-17T22:33:43.709Z,0.00
2023-03-17T22:34:43.785Z,0.00
2023-03-17T22:35:43.730Z,0.00
2023-03-17T22:36:43.732Z,0.00
2023-03-17T22:37:43.794Z,0.00
2023-03-17T22:38:43.734Z,0.00
2023-03-17T22:39:43.701Z,0.00
2023-03-17T22:40:43.661Z,0.00
2023-03-17T22:41:43.619Z,0.00
2023-03-17T22:42:43.608Z,0.00
2023-03-17T22:43:43.632Z,0.00
2023-03-17T22:44:43.587Z,0.00
2023-03-17T22:45:43.639Z,0.00
2023-03-17T22:46:43.568Z,0.00
2023-03-17T22:47:43.590Z,0.00
2023-03-17T22:48:43.594Z,0.00
2023-03-17T22:49:43.540Z,0.00
2023-03-17T22:50:43.506Z,0.00
2023-03-17T22:51:43.524Z,0.00
2023-03-17T22:52:43.483Z,0.00
2023-03-17T22:53:43.489Z,0.00
2023-03-17T22:54:43.505Z,0.00
2023-03-17T22:55:43.474Z,0.00
2023-03-17T22:56:43.451Z,0.00
2023-03-17T22:57:43.479Z,0.00
2023-03-17T22:58:43.433Z,0.00
2023-03-17T22:59:43.417Z,0.00
2023-03-17T23:00:43.424Z,0.00
2023-03-17T23:01:43.436Z,0.00
2023-03-17T23:02:43.470Z,0.00
2023-03-17T23:03:43.445Z,0.00
2023-03-17T23:04:43.385Z,0.00
2023-03-17T23:05:43.428Z,0.00
2023-03-17T23:06:43.391Z,0.00
2023-03-17T23:07:51.493Z,0.00
2023-03-17T23:08:43.359Z,0.00
2023-03-17T23:09:43.328Z,0.00
2023-03-17T23:10:43.306Z,0.00
2023-03-17T23:11:43.303Z,0.00
2023-03-17T23:12:43.302Z,0.00
2023-03-17T23:13:43.306Z,0.00
2023-03-17T23:14:43.362Z,0.00
2023-03-17T23:15:43.281Z,0.00
2023-03-17T23:16:43.348Z,0.00
2023-03-17T23:17:43.271Z,0.00
2023-03-17T23:18:46.125Z,0.00
2023-03-17T23:19:43.313Z,0.00
2023-03-17T23:20:43.247Z,0.00
2023-03-17T23:21:43.218Z,0.00
2023-03-17T23:22:43.219Z,0.00
2023-03-17T23:23:43.230Z,0.00
2023-03-17T23:24:43.185Z,0.00
2023-03-17T23:25:43.223Z,0.00
2023-03-17T23:26:43.274Z,0.00
2023-03-17T23:27:43.146Z,0.00
2023-03-17T23:28:43.124Z,0.00
2023-03-17T23:29:43.120Z,0.00
2023-03-17T23:30:43.312Z,0.00
2023-03-17T23:31:43.091Z,0.00
2023-03-17T23:32:43.143Z,0.00
2023-03-17T23:33:43.094Z,0.00
2023-03-17T23:34:43.065Z,0.00
2023-03-17T23:35:43.073Z,0.00
2023-03-17T23:36:43.055Z,0.00
2023-03-17T23:37:43.024Z,0.00
2023-03-17T23:38:43.009Z,0.00
2023-03-17T23:39:43.028Z,0.00
2023-03-17T23:40:42.991Z,0.00
2023-03-17T23:41:43.613Z,0.00
2023-03-17T23:42:42.991Z,0.00
2023-03-17T23:43:42.980Z,0.00
2023-03-17T23:44:43.006Z,0.00
2023-03-17T23:45:42.947Z,0.00
2023-03-17T23:46:42.972Z,0.00
2023-03-17T23:47:42.968Z,0.00
2023-03-17T23:48:43.136Z,0.00
2023-03-17T23:49:42.893Z,0.00
2023-03-17T23:50:42.875Z,0.00
2023-03-17T23:51:42.879Z,0.00
2023-03-17T23:52:42.866Z,0.00
2023-03-17T23:53:42.933Z,0.00
2023-03-17T23:54:42.839Z,0.00
2023-03-17T23:55:42.847Z,0.00
2023-03-17T23:56:43.132Z,0.00
2023-03-17T23:57:42.827Z,0.00
2023-03-17T23:58:42.961Z,0.00
2023-03-17T23:59:42.828Z,0.00
